createdAt,value
2023-02-11T00:00:17.492Z,80.566667
2023-02-11T00:05:17.545Z,80.450000
2023-02-11T00:10:17.446Z,80.587500
2023-02-11T00:15:17.639Z,80.666667
2023-02-11T00:20:17.456Z,80.800000
2023-02-11T00:25:17.434Z,80.720833
2023-02-11T00:30:17.410Z,80.700000
2023-02-11T00:35:17.535Z,80.700000
2023-02-11T00:40:17.416Z,80.575000
2023-02-11T00:45:17.434Z,80.720833
2023-02-11T00:50:17.454Z,80.700000
2023-02-11T00:55:17.370Z,80.520833
2023-02-11T01:00:17.307Z,80.495833
2023-02-11T01:05:17.586Z,80.733333
2023-02-11T01:10:17.472Z,80.633333
2023-02-11T01:15:17.949Z,80.662500
2023-02-11T01:20:17.528Z,80.562500
2023-02-11T01:25:17.328Z,80.533333
2023-02-11T01:30:17.438Z,80.283333
2023-02-11T01:35:17.442Z,79.980000
2023-02-11T01:40:17.506Z,79.900000
2023-02-11T01:45:17.501Z,79.916000
2023-02-11T01:50:17.319Z,79.704167
2023-02-11T01:55:17.601Z,79.500000
2023-02-11T02:00:17.249Z,79.316667
2023-02-11T02:05:17.527Z,78.896000
2023-02-11T02:10:17.423Z,78.741667
2023-02-11T02:15:17.790Z,78.825000
2023-02-11T02:20:17.320Z,78.745833
2023-02-11T02:25:17.538Z,78.504167
2023-02-11T02:30:17.462Z,78.333333
2023-02-11T02:35:17.552Z,78.212500
2023-02-11T02:40:17.292Z,78.254167
2023-02-11T02:45:17.262Z,78.128000
2023-02-11T02:50:17.626Z,77.716667
2023-02-11T02:55:17.366Z,77.525000
2023-02-11T03:00:17.677Z,77.587500
2023-02-11T03:05:17.584Z,77.533333
2023-02-11T03:10:17.500Z,77.566667
2023-02-11T03:15:17.408Z,77.550000
2023-02-11T03:20:17.305Z,77.620833
2023-02-11T03:25:17.274Z,77.783333
2023-02-11T03:30:17.244Z,77.891667
2023-02-11T03:35:17.306Z,77.962500
2023-02-11T03:40:17.292Z,78.083333
2023-02-11T03:45:17.264Z,78.733333
2023-02-11T03:50:17.287Z,79.083333
2023-02-11T03:55:17.295Z,79.295833
2023-02-11T04:00:17.322Z,79.600000
2023-02-11T04:05:17.274Z,79.720833
2023-02-11T04:10:17.505Z,79.900000
2023-02-11T04:15:17.591Z,79.833333
2023-02-11T04:20:17.247Z,79.833333
2023-02-11T04:25:17.261Z,79.929167
2023-02-11T04:30:20.785Z,79.895833
2023-02-11T04:35:37.870Z,79.592000
2023-02-11T04:40:17.299Z,79.286364
2023-02-11T04:45:17.233Z,79.387500
2023-02-11T04:50:17.571Z,79.416667
2023-02-11T04:55:17.278Z,79.420833
2023-02-11T05:00:17.404Z,79.375000
2023-02-11T05:05:17.261Z,79.508333
2023-02-11T05:10:17.366Z,79.620000
2023-02-11T05:15:17.523Z,79.770833
2023-02-11T05:20:17.206Z,79.800000
2023-02-11T05:25:17.621Z,79.866667
2023-02-11T05:30:17.762Z,79.833333
2023-02-11T05:35:17.537Z,79.908333
2023-02-11T05:40:17.277Z,79.825000
2023-02-11T05:45:17.441Z,79.420833
2023-02-11T05:50:17.553Z,78.950000
2023-02-11T05:55:17.359Z,78.733333
2023-02-11T06:00:17.304Z,78.737500
2023-02-11T06:05:17.264Z,78.591667
2023-02-11T06:10:17.758Z,78.429167
2023-02-11T06:15:17.588Z,78.175000
2023-02-11T06:20:17.206Z,78.204167
2023-02-11T06:25:17.333Z,78.370833
2023-02-11T06:30:17.348Z,78.100000
2023-02-11T06:35:17.385Z,78.100000
2023-02-11T06:40:17.465Z,78.116667
2023-02-11T06:45:17.252Z,78.237500
2023-02-11T06:50:17.232Z,78.416667
2023-02-11T06:55:17.224Z,78.458333
2023-02-11T07:00:17.219Z,78.175000
2023-02-11T07:05:17.237Z,78.016000
2023-02-11T07:10:17.748Z,78.000000
2023-02-11T07:15:17.509Z,78.079167
2023-02-11T07:20:17.243Z,77.908333
2023-02-11T07:25:17.359Z,78.016667
2023-02-11T07:30:17.835Z,78.366667
2023-02-11T07:35:17.187Z,78.600000
2023-02-11T07:40:17.249Z,78.483333
2023-02-11T07:45:17.378Z,78.450000
2023-02-11T07:50:17.230Z,78.333333
2023-02-11T07:55:17.378Z,78.562500
2023-02-11T08:00:20.017Z,78.804167
2023-02-11T08:05:17.206Z,78.825000
2023-02-11T08:10:17.354Z,78.904167
2023-02-11T08:15:17.564Z,78.833333
2023-02-11T08:20:17.347Z,78.812500
2023-02-11T08:25:17.204Z,78.891667
2023-02-11T08:30:17.493Z,79.058333
2023-02-11T08:35:17.346Z,79.320000
2023-02-11T08:40:17.532Z,79.525000
2023-02-11T08:45:19.699Z,79.683333
2023-02-11T08:50:19.758Z,79.652000
2023-02-11T08:55:19.672Z,79.650000
2023-02-11T09:00:19.832Z,79.441667
2023-02-11T09:05:19.951Z,79.425000
2023-02-11T09:10:20.339Z,79.150000
2023-02-11T09:15:19.975Z,79.095833
2023-02-11T09:20:19.632Z,78.895833
2023-02-11T09:25:19.771Z,78.933333
2023-02-11T09:30:19.970Z,78.933333
2023-02-11T09:35:19.745Z,78.966667
2023-02-11T09:40:19.718Z,78.750000
2023-02-11T09:45:19.648Z,78.887500
2023-02-11T09:50:19.746Z,78.912500
2023-02-11T09:55:19.817Z,78.983333
2023-02-11T10:00:19.734Z,79.066667
2023-02-11T10:05:19.722Z,78.970833
2023-02-11T10:10:19.699Z,78.383333
2023-02-11T10:15:19.722Z,78.633333
2023-02-11T10:20:19.878Z,78.937500
2023-02-11T10:25:19.782Z,79.162500
2023-02-11T10:30:19.885Z,79.350000
2023-02-11T10:35:19.676Z,79.276000
2023-02-11T10:40:19.772Z,79.575000
2023-02-11T10:45:19.682Z,80.050000
2023-02-11T10:50:19.668Z,79.891667
2023-02-11T10:55:19.791Z,79.704167
2023-02-11T11:00:19.707Z,79.758333
2023-02-11T11:05:19.718Z,80.029167
2023-02-11T11:10:19.705Z,80.216667
2023-02-11T11:15:19.752Z,80.041667
2023-02-11T11:20:19.695Z,80.016667
2023-02-11T11:25:19.884Z,80.133333
2023-02-11T11:30:20.098Z,80.391667
2023-02-11T11:35:19.622Z,80.208333
2023-02-11T11:40:19.664Z,80.050000
2023-02-11T11:45:17.121Z,80.008333
2023-02-11T11:50:19.010Z,80.141667
2023-02-11T11:55:17.194Z,80.116667
2023-02-11T12:00:17.219Z,80.341667
2023-02-11T12:05:17.423Z,80.354167
2023-02-11T12:10:17.235Z,80.450000
2023-02-11T12:15:17.565Z,80.483333
2023-02-11T12:20:17.386Z,80.516667
2023-02-11T12:25:17.426Z,80.666667
2023-02-11T12:30:17.184Z,80.958333
2023-02-11T12:35:17.715Z,81.137500
2023-02-11T12:40:17.116Z,81.025000
2023-02-11T12:45:17.255Z,80.916667
2023-02-11T12:50:17.494Z,80.870833
2023-02-11T12:55:17.057Z,80.908333
2023-02-11T13:00:17.019Z,80.956522
2023-02-11T13:05:17.631Z,80.741667
2023-02-11T13:10:17.202Z,80.704167
2023-02-11T13:15:17.437Z,80.816667
2023-02-11T13:20:17.078Z,80.816667
2023-02-11T13:25:17.172Z,80.879167
2023-02-11T13:30:17.373Z,81.016667
2023-02-11T13:35:17.097Z,80.991667
2023-02-11T13:40:17.303Z,80.733333
2023-02-11T13:45:17.157Z,80.700000
2023-02-11T13:50:17.080Z,80.733333
2023-02-11T13:55:17.295Z,80.862500
2023-02-11T14:00:17.330Z,81.195833
2023-02-11T14:05:17.515Z,81.304167
2023-02-11T14:10:17.127Z,81.762500
2023-02-11T14:15:17.280Z,81.412000
2023-02-11T14:20:17.153Z,81.458333
2023-02-11T14:25:17.305Z,81.500000
2023-02-11T14:30:17.113Z,81.533333
2023-02-11T14:35:17.125Z,81.500000
2023-02-11T14:40:17.131Z,81.608333
2023-02-11T14:45:17.047Z,81.758333
2023-02-11T14:50:17.625Z,81.762500
2023-02-11T14:55:17.964Z,81.712500
2023-02-11T15:00:17.609Z,81.650000
2023-02-11T15:05:17.111Z,81.916667
2023-02-11T15:10:17.253Z,82.075000
2023-02-11T15:15:17.410Z,82.208333
2023-02-11T15:20:17.229Z,82.291667
2023-02-11T15:25:17.053Z,82.333333
2023-02-11T15:30:17.208Z,82.429167
2023-02-11T15:35:17.023Z,82.416667
2023-02-11T15:40:17.408Z,82.616667
2023-02-11T15:45:17.149Z,82.570833
2023-02-11T15:50:17.096Z,82.595833
2023-02-11T15:55:17.140Z,82.633333
2023-02-11T16:00:17.159Z,82.604167
2023-02-11T16:05:17.207Z,82.754167
2023-02-11T16:10:17.098Z,82.766667
2023-02-11T16:15:17.136Z,82.962500
2023-02-11T16:20:17.099Z,83.292000
2023-02-11T16:25:18.997Z,83.620833
2023-02-11T16:30:17.039Z,83.750000
2023-02-11T16:35:17.052Z,83.716667
2023-02-11T16:40:17.163Z,83.712500
2023-02-11T16:45:17.188Z,83.683333
2023-02-11T16:50:17.545Z,83.712500
2023-02-11T16:55:17.110Z,84.012500
2023-02-11T17:00:17.247Z,84.420833
2023-02-11T17:05:17.512Z,84.725000
2023-02-11T17:10:17.626Z,85.154167
2023-02-11T17:15:17.569Z,85.371429
2023-02-11T17:20:17.133Z,85.844000
2023-02-11T17:25:17.240Z,86.112500
2023-02-11T17:30:17.271Z,86.328571
2023-02-11T17:35:17.351Z,86.808333
2023-02-11T17:40:17.142Z,87.340000
2023-02-11T17:45:17.116Z,87.914286
2023-02-11T17:50:17.138Z,88.270833
2023-02-11T17:55:16.935Z,88.533333
2023-02-11T18:00:17.118Z,88.819048
2023-02-11T18:05:16.963Z,89.075000
2023-02-11T18:10:17.010Z,89.166667
2023-02-11T18:15:17.406Z,89.285714
2023-02-11T18:20:17.118Z,89.362500
2023-02-11T18:25:17.129Z,89.629167
2023-02-11T18:30:16.966Z,89.766667
2023-02-11T18:35:17.331Z,89.929167
2023-02-11T18:40:17.095Z,89.991667
2023-02-11T18:45:17.262Z,90.100000
2023-02-11T18:50:17.030Z,90.175000
2023-02-11T18:55:16.958Z,90.258333
2023-02-11T19:00:17.091Z,90.183333
2023-02-11T19:05:16.955Z,90.219048
2023-02-11T19:10:16.977Z,90.262500
2023-02-11T19:15:17.350Z,90.325000
2023-02-11T19:20:17.034Z,90.400000
2023-02-11T19:25:17.226Z,90.448000
2023-02-11T19:30:17.649Z,90.558333
2023-02-11T19:35:17.171Z,90.616667
2023-02-11T19:40:17.101Z,90.650000
2023-02-11T19:45:17.075Z,90.645833
2023-02-11T19:50:17.124Z,90.741667
2023-02-11T19:55:17.387Z,90.745833
2023-02-11T20:00:17.423Z,90.788000
2023-02-11T20:05:17.015Z,90.916667
2023-02-11T20:10:17.205Z,90.966667
2023-02-11T20:15:17.039Z,91.000000
2023-02-11T20:20:16.910Z,91.000000
2023-02-11T20:25:16.973Z,91.058333
2023-02-11T20:30:16.932Z,91.066667
2023-02-11T20:35:17.003Z,91.116667
2023-02-11T20:40:16.981Z,91.137500
2023-02-11T20:45:17.064Z,91.183333
2023-02-11T20:50:16.895Z,91.137500
2023-02-11T20:55:16.902Z,91.191667
2023-02-11T21:00:17.266Z,91.241667
2023-02-11T21:05:16.881Z,91.270833
2023-02-11T21:10:16.955Z,91.216667
2023-02-11T21:15:17.426Z,91.300000
2023-02-11T21:20:17.183Z,91.300000
2023-02-11T21:25:16.916Z,91.312500
2023-02-11T21:30:16.992Z,91.337500
2023-02-11T21:35:17.174Z,91.308333
2023-02-11T21:40:16.985Z,91.366667
2023-02-11T21:45:16.972Z,91.400000
2023-02-11T21:50:17.324Z,91.400000
2023-02-11T21:55:17.062Z,91.400000
2023-02-11T22:00:17.119Z,91.464000
2023-02-11T22:05:17.164Z,91.479167
2023-02-11T22:10:17.384Z,91.500000
2023-02-11T22:15:17.596Z,91.462500
2023-02-11T22:20:16.927Z,91.437500
2023-02-11T22:25:16.921Z,91.500000
2023-02-11T22:30:17.257Z,91.516667
2023-02-11T22:35:16.956Z,91.550000
2023-02-11T22:40:16.948Z,91.516667
2023-02-11T22:45:16.969Z,91.516000
2023-02-11T22:50:17.070Z,91.466667
2023-02-11T22:55:17.106Z,91.450000
2023-02-11T23:00:17.014Z,91.516667
2023-02-11T23:05:17.213Z,91.612000
2023-02-11T23:10:16.936Z,91.591667
2023-02-11T23:15:16.984Z,91.466667
2023-02-11T23:20:16.914Z,91.600000
2023-02-11T23:25:17.171Z,91.700000
2023-02-11T23:30:17.000Z,91.700000
2023-02-11T23:35:17.418Z,91.700000
2023-02-11T23:40:17.247Z,91.650000
2023-02-11T23:45:16.946Z,91.716667
2023-02-11T23:50:16.913Z,91.700000
2023-02-11T23:55:16.912Z,91.741667
